createdAt,value
2018-05-21T00:01:01.198Z,9.80
2018-05-21T00:03:28.722Z,9.43
2018-05-21T00:05:56.189Z,8.70
2018-05-21T00:08:23.664Z,9.70
2018-05-21T00:10:51.134Z,9.23
2018-05-21T00:13:18.619Z,8.20
2018-05-21T00:15:46.852Z,7.97
2018-05-21T00:18:14.484Z,8.20
2018-05-21T00:20:41.961Z,9.03
2018-05-21T00:23:09.425Z,8.47
2018-05-21T00:25:36.929Z,8.77
2018-05-21T00:28:05.173Z,9.23
2018-05-21T00:30:32.646Z,9.27
2018-05-21T00:33:00.115Z,9.27
2018-05-21T00:35:27.645Z,8.93
2018-05-21T00:37:55.157Z,9.40
2018-05-21T00:40:22.643Z,9.70
2018-05-21T00:42:51.025Z,9.10
2018-05-21T00:45:18.512Z,8.63
2018-05-21T00:47:46.743Z,9.70
2018-05-21T00:50:14.217Z,8.93
2018-05-21T00:52:41.700Z,8.77
2018-05-21T00:55:21.887Z,9.17
2018-05-21T00:57:49.350Z,8.73
2018-05-21T01:00:16.850Z,9.37
2018-05-21T01:02:44.338Z,9.23
2018-05-21T01:05:11.812Z,10.23
2018-05-21T01:07:39.295Z,9.20
2018-05-21T01:10:06.768Z,9.33
2018-05-21T01:12:34.247Z,8.80
2018-05-21T01:15:02.468Z,9.30
2018-05-21T01:17:29.948Z,9.93
2018-05-21T01:19:57.419Z,10.03
2018-05-21T01:22:24.939Z,9.67
2018-05-21T01:24:52.396Z,9.90
2018-05-21T01:27:19.865Z,8.90
2018-05-21T01:29:47.329Z,8.27
2018-05-21T01:32:14.812Z,7.40
2018-05-21T01:34:43.041Z,8.33
2018-05-21T01:37:10.612Z,8.67
2018-05-21T01:39:37.976Z,8.17
2018-05-21T01:42:05.461Z,8.83
2018-05-21T01:44:33.689Z,8.53
2018-05-21T01:47:01.162Z,7.50
2018-05-21T01:49:28.640Z,8.67
2018-05-21T01:51:56.882Z,7.77
2018-05-21T01:54:24.353Z,8.10
2018-05-21T01:56:51.832Z,6.97
2018-05-21T01:59:19.292Z,7.30
2018-05-21T02:01:46.770Z,7.43
2018-05-21T02:04:14.254Z,7.33
2018-05-21T02:06:41.730Z,8.23
2018-05-21T02:09:09.203Z,8.33
2018-05-21T02:11:37.421Z,8.33
2018-05-21T02:14:04.893Z,8.77
2018-05-21T02:16:32.366Z,8.50
2018-05-21T02:18:59.836Z,7.43
2018-05-21T02:21:28.065Z,7.70
2018-05-21T02:23:55.541Z,7.90
2018-05-21T02:26:23.005Z,7.53
2018-05-21T02:28:50.498Z,7.63
2018-05-21T02:31:18.714Z,8.17
2018-05-21T02:33:46.187Z,8.10
2018-05-21T02:36:13.677Z,8.23
2018-05-21T02:38:41.919Z,7.47
2018-05-21T02:41:09.386Z,7.40
2018-05-21T02:43:36.883Z,7.03
2018-05-21T02:46:04.345Z,6.13
2018-05-21T02:48:31.809Z,7.27
2018-05-21T02:50:59.289Z,6.33
2018-05-21T02:53:26.765Z,6.70
2018-05-21T02:55:54.239Z,6.83
2018-05-21T02:58:22.471Z,7.13
2018-05-21T03:00:49.952Z,7.43
2018-05-21T03:03:17.408Z,7.13
2018-05-21T03:05:44.892Z,7.30
2018-05-21T03:08:12.365Z,8.23
2018-05-21T03:10:39.843Z,7.80
2018-05-21T03:13:07.310Z,8.30
2018-05-21T03:15:34.769Z,7.33
2018-05-21T03:18:02.243Z,7.17
2018-05-21T03:20:29.717Z,7.33
2018-05-21T03:22:57.947Z,7.23
2018-05-21T03:25:25.497Z,8.17
2018-05-21T03:27:52.953Z,7.40
2018-05-21T03:30:20.435Z,8.00
2018-05-21T03:32:47.891Z,7.20
2018-05-21T03:35:15.367Z,7.30
2018-05-21T03:37:43.606Z,7.33
2018-05-21T03:40:11.061Z,6.77
2018-05-21T03:42:38.539Z,6.57
2018-05-21T03:45:05.993Z,6.87
2018-05-21T03:47:33.468Z,7.03
2018-05-21T03:50:01.699Z,6.03
2018-05-21T03:52:29.180Z,6.57
2018-05-21T03:54:56.648Z,6.40
2018-05-21T03:57:24.886Z,6.73
2018-05-21T04:00:04.271Z,6.20
2018-05-21T04:02:43.650Z,5.57
2018-05-21T04:05:11.115Z,5.00
2018-05-21T04:07:38.581Z,5.33
2018-05-21T04:10:07.557Z,5.70
2018-05-21T04:12:35.032Z,5.20
2018-05-21T04:15:02.503Z,4.53
2018-05-21T04:17:29.975Z,5.07
2018-05-21T04:19:58.196Z,4.40
2018-05-21T04:22:25.672Z,4.60
2018-05-21T04:24:53.158Z,4.60
2018-05-21T04:27:21.368Z,4.00
2018-05-21T04:29:48.852Z,4.10
2018-05-21T04:32:16.319Z,4.20
2018-05-21T04:34:43.877Z,3.90
2018-05-21T04:37:11.355Z,3.73
2018-05-21T04:39:39.603Z,3.73
2018-05-21T04:42:07.063Z,3.10
2018-05-21T04:44:35.306Z,3.37
2018-05-21T04:47:02.769Z,3.30
2018-05-21T04:49:30.232Z,2.93
2018-05-21T04:51:57.688Z,3.00
2018-05-21T04:54:25.165Z,3.90
2018-05-21T04:56:52.621Z,2.80
2018-05-21T04:59:20.088Z,2.87
2018-05-21T05:01:48.329Z,2.43
2018-05-21T05:04:15.801Z,3.50
2018-05-21T05:06:43.282Z,3.20
2018-05-21T05:09:11.495Z,3.67
2018-05-21T05:11:39.950Z,3.20
2018-05-21T05:14:07.400Z,2.87
2018-05-21T05:16:34.926Z,3.50
2018-05-21T05:19:02.386Z,3.00
2018-05-21T05:21:29.854Z,2.70
2018-05-21T05:23:58.078Z,2.77
2018-05-21T05:26:25.553Z,3.03
2018-05-21T05:28:54.532Z,3.53
2018-05-21T05:31:22.012Z,2.97
2018-05-21T05:33:49.478Z,3.37
2018-05-21T05:36:17.726Z,3.70
2018-05-21T05:38:45.191Z,3.93
2018-05-21T05:41:14.176Z,3.77
2018-05-21T05:43:41.649Z,3.97
2018-05-21T05:46:09.123Z,3.93
2018-05-21T05:48:37.346Z,4.17
2018-05-21T05:51:04.798Z,4.90
2018-05-21T05:53:32.282Z,4.70
2018-05-21T05:55:59.733Z,3.93
2018-05-21T05:58:27.211Z,2.97
2018-05-21T06:00:55.429Z,5.00
2018-05-21T06:03:22.906Z,3.50
2018-05-21T06:05:50.361Z,3.73
2018-05-21T06:08:17.832Z,4.10
2018-05-21T06:10:45.291Z,3.83
2018-05-21T06:13:12.771Z,3.40
2018-05-21T06:15:41.005Z,3.90
2018-05-21T06:18:08.485Z,3.80
2018-05-21T06:20:35.953Z,3.80
2018-05-21T06:23:04.200Z,3.23
2018-05-21T06:25:31.690Z,3.20
2018-05-21T06:27:59.189Z,3.33
2018-05-21T06:30:26.658Z,4.00
2018-05-21T06:32:54.128Z,3.63
2018-05-21T06:35:23.117Z,3.70
2018-05-21T06:37:50.593Z,4.47
2018-05-21T06:40:18.060Z,4.80
2018-05-21T06:42:46.305Z,5.57
2018-05-21T06:45:13.785Z,6.07
2018-05-21T06:47:42.051Z,10.10
2018-05-21T06:50:09.501Z,4.73
2018-05-21T06:52:37.025Z,5.03
2018-05-21T06:55:04.503Z,4.17
2018-05-21T06:57:31.989Z,4.13
2018-05-21T07:00:00.260Z,3.90
2018-05-21T07:02:27.734Z,3.40
2018-05-21T07:04:55.221Z,3.57
2018-05-21T07:07:22.682Z,3.80
2018-05-21T07:09:50.162Z,3.22
2018-05-21T07:12:17.636Z,3.40
2018-05-21T07:14:45.869Z,3.73
2018-05-21T07:17:13.342Z,3.67
2018-05-21T07:19:40.825Z,3.27
2018-05-21T07:22:09.049Z,3.83
2018-05-21T07:24:36.510Z,3.27
2018-05-21T07:27:04.031Z,10.83
2018-05-21T07:29:31.529Z,4.00
2018-05-21T07:31:59.029Z,4.20
2018-05-21T07:34:27.306Z,4.40
2018-05-21T07:36:55.610Z,4.03
2018-05-21T07:39:23.085Z,4.50
2018-05-21T07:41:50.569Z,3.70
2018-05-21T07:44:18.033Z,3.57
2018-05-21T07:46:46.294Z,3.23
2018-05-21T07:49:15.269Z,3.03
2018-05-21T07:51:42.839Z,3.50
2018-05-21T07:54:11.011Z,3.27
2018-05-21T07:56:38.489Z,3.43
2018-05-21T07:59:05.985Z,3.13
2018-05-21T08:01:33.452Z,3.20
2018-05-21T08:04:00.945Z,3.10
2018-05-21T08:06:28.401Z,3.50
2018-05-21T08:08:55.890Z,3.03
2018-05-21T08:11:23.369Z,3.25
2018-05-21T08:13:50.848Z,3.22
2018-05-21T08:16:18.341Z,2.95
2018-05-21T08:18:45.830Z,3.83
2018-05-21T08:21:13.301Z,3.60
2018-05-21T08:23:40.789Z,3.50
2018-05-21T08:26:08.274Z,3.08
2018-05-21T08:28:36.511Z,3.25
2018-05-21T08:31:03.992Z,3.50
2018-05-21T08:33:32.232Z,3.37
2018-05-21T08:35:59.725Z,3.53
2018-05-21T08:38:27.976Z,3.03
2018-05-21T08:40:56.214Z,3.42
2018-05-21T08:43:23.682Z,3.50
2018-05-21T08:45:51.165Z,3.67
2018-05-21T08:48:18.661Z,3.97
2018-05-21T08:50:46.162Z,3.37
2018-05-21T08:53:13.630Z,3.83
2018-05-21T08:55:41.108Z,3.58
2018-05-21T08:58:09.345Z,3.20
2018-05-21T09:00:36.885Z,3.83
2018-05-21T09:03:04.369Z,3.70
2018-05-21T09:05:31.834Z,3.55
2018-05-21T09:08:00.069Z,3.62
2018-05-21T09:10:27.563Z,3.45
2018-05-21T09:12:55.067Z,3.55
2018-05-21T09:15:22.573Z,3.95
2018-05-21T09:17:50.276Z,3.85
2018-05-21T09:20:17.797Z,3.85
2018-05-21T09:22:45.305Z,3.87
2018-05-21T09:25:12.799Z,3.78
2018-05-21T09:27:40.311Z,4.10
2018-05-21T09:30:07.788Z,4.50
2018-05-21T09:32:36.225Z,4.03
2018-05-21T09:35:04.510Z,4.12
2018-05-21T09:37:32.767Z,4.07
2018-05-21T09:40:01.020Z,4.15
2018-05-21T09:42:30.214Z,3.75
2018-05-21T09:44:57.689Z,3.75
2018-05-21T09:47:25.231Z,3.62
2018-05-21T09:49:52.703Z,3.92
2018-05-21T09:52:20.194Z,3.92
2018-05-21T09:54:47.863Z,3.75
2018-05-21T09:57:15.375Z,3.60
2018-05-21T09:59:43.665Z,4.32
2018-05-21T10:02:13.523Z,3.72
2018-05-21T10:04:40.998Z,3.75
2018-05-21T10:07:08.492Z,3.50
2018-05-21T10:09:36.721Z,4.15
2018-05-21T10:12:04.275Z,3.80
2018-05-21T10:14:32.563Z,3.55
2018-05-21T10:17:00.044Z,4.00
2018-05-21T10:19:28.302Z,3.53
2018-05-21T10:21:55.811Z,3.83
2018-05-21T10:24:23.306Z,3.92
2018-05-21T10:26:50.820Z,3.42
2018-05-21T10:29:18.307Z,3.50
2018-05-21T10:31:45.792Z,3.40
2018-05-21T10:34:13.277Z,3.33
2018-05-21T10:36:40.765Z,3.67
2018-05-21T10:39:08.256Z,3.42
2018-05-21T10:41:35.720Z,3.47
2018-05-21T10:44:03.215Z,4.07
2018-05-21T10:46:30.768Z,3.70
2018-05-21T10:48:58.278Z,3.50
2018-05-21T10:51:25.878Z,3.50
2018-05-21T10:53:53.333Z,3.40
2018-05-21T10:56:22.251Z,3.37
2018-05-21T10:58:49.680Z,3.83
2018-05-21T11:01:17.177Z,3.30
2018-05-21T11:03:44.662Z,3.07
2018-05-21T11:06:12.117Z,3.60
2018-05-21T11:08:39.592Z,3.10
2018-05-21T11:11:07.816Z,3.63
2018-05-21T11:13:35.305Z,3.63
2018-05-21T11:16:03.552Z,3.10
2018-05-21T11:18:31.025Z,3.00
2018-05-21T11:20:58.558Z,2.97
2018-05-21T11:23:26.033Z,3.57
2018-05-21T11:25:53.536Z,3.50
2018-05-21T11:28:20.998Z,3.20
2018-05-21T11:30:48.477Z,3.07
2018-05-21T11:33:15.949Z,3.90
2018-05-21T11:35:43.421Z,3.30
2018-05-21T11:38:10.885Z,3.17
2018-05-21T11:40:39.146Z,3.50
2018-05-21T11:43:07.389Z,2.87
2018-05-21T11:45:34.889Z,3.10
2018-05-21T11:48:02.357Z,3.87
2018-05-21T11:50:30.576Z,3.00
2018-05-21T11:52:58.045Z,3.20
2018-05-21T11:55:25.525Z,3.17
2018-05-21T11:57:53.029Z,3.50
2018-05-21T12:00:20.539Z,3.00
2018-05-21T12:02:48.075Z,3.40
2018-05-21T12:05:15.485Z,3.30
2018-05-21T12:07:43.032Z,3.30
2018-05-21T12:10:10.463Z,3.27
2018-05-21T12:12:37.936Z,2.60
2018-05-21T12:15:06.170Z,3.17
2018-05-21T12:17:33.653Z,3.37
2018-05-21T12:20:01.117Z,2.87
2018-05-21T12:22:29.390Z,2.77
2018-05-21T12:24:56.859Z,3.40
2018-05-21T12:27:25.125Z,5.63
2018-05-21T12:29:53.382Z,2.67
2018-05-21T12:32:20.887Z,2.90
2018-05-21T12:34:48.631Z,3.17
2018-05-21T12:37:16.094Z,3.17
2018-05-21T12:39:43.614Z,2.90
2018-05-21T12:42:11.100Z,2.60
2018-05-21T12:44:39.339Z,3.13
2018-05-21T12:47:06.817Z,2.67
2018-05-21T12:49:35.045Z,2.80
2018-05-21T12:52:02.528Z,3.20
2018-05-21T12:54:30.018Z,3.00
2018-05-21T12:56:57.493Z,2.83
2018-05-21T12:59:24.969Z,2.70
2018-05-21T13:01:52.472Z,2.60
2018-05-21T13:04:20.722Z,3.60
2018-05-21T13:06:48.194Z,3.03
2018-05-21T13:09:16.438Z,2.53
2018-05-21T13:11:43.915Z,2.80
2018-05-21T13:14:11.405Z,2.53
2018-05-21T13:16:38.893Z,3.10
2018-05-21T13:19:06.367Z,3.10
2018-05-21T13:21:33.837Z,3.57
2018-05-21T13:24:01.404Z,2.97
2018-05-21T13:26:29.564Z,3.03
2018-05-21T13:28:57.035Z,3.20
2018-05-21T13:31:25.313Z,3.03
2018-05-21T13:33:53.551Z,3.20
2018-05-21T13:36:21.011Z,3.03
2018-05-21T13:38:48.492Z,3.10
2018-05-21T13:41:16.746Z,3.00
2018-05-21T13:43:44.230Z,3.00
2018-05-21T13:46:12.470Z,3.90
2018-05-21T13:48:39.945Z,3.10
2018-05-21T13:51:07.426Z,3.30
2018-05-21T13:53:35.682Z,3.33
2018-05-21T13:56:03.946Z,2.80
2018-05-21T13:58:32.945Z,3.30
2018-05-21T14:01:01.185Z,3.17
2018-05-21T14:03:28.674Z,3.33
2018-05-21T14:05:56.133Z,3.60
2018-05-21T14:08:23.616Z,3.40
2018-05-21T14:10:51.092Z,3.40
2018-05-21T14:13:18.565Z,3.63
2018-05-21T14:15:46.109Z,3.40
2018-05-21T14:18:13.517Z,3.37
2018-05-21T14:20:41.777Z,3.50
2018-05-21T14:23:09.236Z,3.87
2018-05-21T14:25:37.733Z,4.40
2018-05-21T14:28:05.966Z,3.20
2018-05-21T14:30:33.450Z,3.50
2018-05-21T14:33:00.918Z,3.83
2018-05-21T14:35:30.062Z,3.80
2018-05-21T14:37:57.525Z,4.00
2018-05-21T14:40:25.021Z,2.83
2018-05-21T14:42:53.259Z,3.67
2018-05-21T14:45:20.733Z,3.57
2018-05-21T14:47:48.204Z,3.10
2018-05-21T14:50:15.717Z,3.47
2018-05-21T14:52:43.180Z,3.23
2018-05-21T14:55:10.666Z,3.03
2018-05-21T14:57:38.145Z,2.80
2018-05-21T15:00:06.388Z,3.97
2018-05-21T15:02:33.860Z,3.30
2018-05-21T15:05:02.134Z,3.47
2018-05-21T15:07:29.626Z,3.27
2018-05-21T15:09:57.097Z,3.03
2018-05-21T15:12:24.582Z,3.50
2018-05-21T15:14:52.045Z,3.53
2018-05-21T15:17:19.537Z,3.67
2018-05-21T15:19:47.009Z,3.90
2018-05-21T15:22:14.531Z,3.60
2018-05-21T15:24:41.968Z,3.17
2018-05-21T15:27:09.447Z,3.87
2018-05-21T15:29:37.692Z,3.97
2018-05-21T15:32:05.173Z,3.37
2018-05-21T15:34:32.630Z,3.10
2018-05-21T15:37:00.885Z,3.10
2018-05-21T15:39:28.353Z,3.40
2018-05-21T15:41:55.825Z,8.87
2018-05-21T15:44:24.229Z,3.67
2018-05-21T15:49:26.463Z,3.13
2018-05-21T15:51:53.946Z,3.70
2018-05-21T15:54:21.435Z,3.33
2018-05-21T15:56:48.907Z,6.63
2018-05-21T15:59:16.467Z,2.93
2018-05-21T16:01:43.956Z,3.03
2018-05-21T16:04:11.453Z,3.13
2018-05-21T16:06:38.916Z,3.83
2018-05-21T16:09:06.460Z,3.17
2018-05-21T16:11:33.914Z,3.17
2018-05-21T16:14:01.393Z,3.60
2018-05-21T16:16:28.886Z,3.77
2018-05-21T16:18:56.357Z,4.47
2018-05-21T16:21:24.605Z,3.73
2018-05-21T16:23:52.068Z,3.57
2018-05-21T16:26:19.549Z,3.00
2018-05-21T16:28:47.824Z,2.93
2018-05-21T16:31:15.306Z,3.40
2018-05-21T16:33:42.805Z,3.57
2018-05-21T16:36:10.293Z,3.40
2018-05-21T16:38:38.544Z,3.20
2018-05-21T16:41:06.037Z,3.63
2018-05-21T16:43:33.543Z,3.57
2018-05-21T16:46:01.009Z,3.30
2018-05-21T16:48:29.277Z,3.53
2018-05-21T16:50:56.769Z,4.10
2018-05-21T16:53:25.064Z,3.87
2018-05-21T16:55:53.534Z,3.40
2018-05-21T16:58:21.034Z,3.90
2018-05-21T17:00:49.495Z,3.77
2018-05-21T17:03:16.957Z,3.57
2018-05-21T17:05:44.429Z,3.13
2018-05-21T17:08:11.947Z,3.70
2018-05-21T17:10:39.445Z,3.37
2018-05-21T17:13:06.904Z,3.90
2018-05-21T17:15:34.418Z,3.47
2018-05-21T17:18:01.904Z,3.30
2018-05-21T17:20:29.377Z,3.30
2018-05-21T17:22:56.874Z,3.47
2018-05-21T17:25:24.363Z,3.30
2018-05-21T17:27:51.857Z,3.80
2018-05-21T17:30:20.108Z,3.30
2018-05-21T17:32:47.589Z,3.70
2018-05-21T17:35:15.061Z,4.70
2018-05-21T17:37:43.285Z,3.57
2018-05-21T17:40:10.775Z,3.30
2018-05-21T17:42:39.041Z,3.50
2018-05-21T17:45:06.512Z,3.30
2018-05-21T17:47:34.762Z,3.80
2018-05-21T17:50:02.228Z,3.53
2018-05-21T17:52:29.716Z,3.70
2018-05-21T17:54:57.198Z,3.73
2018-05-21T17:57:24.696Z,3.23
2018-05-21T17:59:52.169Z,3.57
2018-05-21T18:02:20.409Z,3.40
2018-05-21T18:04:47.875Z,3.50
2018-05-21T18:07:15.362Z,3.50
2018-05-21T18:09:43.615Z,3.10
2018-05-21T18:12:11.116Z,3.53
2018-05-21T18:14:39.464Z,3.27
2018-05-21T18:17:06.957Z,3.47
2018-05-21T18:19:34.524Z,3.70
2018-05-21T18:22:02.001Z,3.50
2018-05-21T18:24:29.469Z,3.80
2018-05-21T18:26:58.467Z,3.43
2018-05-21T18:29:25.918Z,3.53
2018-05-21T18:31:53.422Z,3.30
2018-05-21T18:34:20.902Z,3.30
2018-05-21T18:36:48.404Z,3.43
2018-05-21T18:39:15.953Z,3.53
2018-05-21T18:41:43.425Z,2.80
2018-05-21T18:44:11.687Z,3.50
2018-05-21T18:46:40.062Z,3.73
2018-05-21T18:49:08.309Z,3.50
2018-05-21T18:51:35.832Z,3.63
2018-05-21T18:54:03.334Z,3.20
2018-05-21T18:56:30.830Z,3.20
2018-05-21T18:58:58.313Z,4.03
2018-05-21T19:01:25.797Z,3.67
2018-05-21T19:03:53.408Z,3.70
2018-05-21T19:06:20.906Z,3.20
2018-05-21T19:08:48.424Z,3.60
2018-05-21T19:11:15.930Z,3.23
2018-05-21T19:13:43.411Z,3.50
2018-05-21T19:16:11.698Z,3.37
2018-05-21T19:18:39.932Z,3.87
2018-05-21T19:21:07.401Z,3.70
2018-05-21T19:23:34.896Z,3.47
2018-05-21T19:26:02.679Z,3.77
2018-05-21T19:28:30.165Z,3.30
2018-05-21T19:30:57.655Z,3.70
2018-05-21T19:33:25.896Z,3.77
2018-05-21T19:35:53.378Z,3.53
2018-05-21T19:38:21.674Z,3.90
2018-05-21T19:40:49.206Z,3.47
2018-05-21T19:43:17.452Z,3.73
2018-05-21T19:45:45.012Z,4.30
2018-05-21T19:48:12.537Z,3.63
2018-05-21T19:50:40.105Z,3.93
2018-05-21T19:53:07.628Z,3.90
2018-05-21T19:55:35.602Z,4.40
2018-05-21T19:58:03.107Z,4.07
2018-05-21T20:00:30.659Z,4.23
2018-05-21T20:02:58.221Z,4.20
2018-05-21T20:05:25.685Z,4.27
2018-05-21T20:07:53.204Z,4.60
2018-05-21T20:10:20.748Z,5.67
2018-05-21T20:12:48.240Z,5.00
2018-05-21T20:15:15.710Z,4.33
2018-05-21T20:17:43.192Z,4.50
2018-05-21T20:20:10.694Z,4.07
2018-05-21T20:22:38.195Z,3.53
2018-05-21T20:25:05.652Z,3.80
2018-05-21T20:27:34.658Z,3.73
2018-05-21T20:30:02.884Z,4.10
2018-05-21T20:32:30.354Z,4.53
2018-05-21T20:34:58.056Z,4.03
2018-05-21T20:37:26.287Z,4.00
2018-05-21T20:39:53.762Z,4.50
2018-05-21T20:42:21.241Z,4.60
2018-05-21T20:44:49.486Z,3.77
2018-05-21T20:47:17.747Z,4.83
2018-05-21T20:49:45.234Z,4.23
2018-05-21T20:52:13.488Z,4.07
2018-05-21T20:54:40.977Z,4.80
2018-05-21T20:57:09.221Z,4.63
2018-05-21T20:59:38.221Z,4.80
2018-05-21T21:02:05.689Z,4.27
2018-05-21T21:04:33.944Z,3.33
2018-05-21T21:07:01.428Z,3.40
2018-05-21T21:09:28.909Z,3.70
2018-05-21T21:11:56.397Z,3.20
2018-05-21T21:14:23.870Z,3.27
2018-05-21T21:16:51.344Z,3.10
2018-05-21T21:19:19.578Z,3.00
2018-05-21T21:21:47.062Z,3.80
2018-05-21T21:24:14.533Z,3.20
2018-05-21T21:26:42.794Z,3.63
2018-05-21T21:29:10.274Z,2.80
2018-05-21T21:31:37.733Z,3.50
2018-05-21T21:34:05.234Z,3.23
2018-05-21T21:36:32.722Z,3.37
2018-05-21T21:39:00.216Z,3.13
2018-05-21T21:41:27.712Z,3.23
2018-05-21T21:43:55.198Z,3.33
2018-05-21T21:46:23.476Z,3.43
2018-05-21T21:48:51.722Z,3.23
2018-05-21T21:51:19.233Z,4.40
2018-05-21T21:53:46.713Z,3.93
2018-05-21T21:56:14.183Z,4.03
2018-05-21T21:58:41.681Z,4.73
2018-05-21T22:01:09.898Z,4.80
2018-05-21T22:03:37.361Z,4.43
2018-05-21T22:06:04.843Z,4.60
2018-05-21T22:08:32.325Z,4.17
2018-05-21T22:10:59.801Z,4.40
2018-05-21T22:13:27.288Z,4.90
2018-05-21T22:15:54.764Z,4.27
2018-05-21T22:18:22.241Z,5.10
2018-05-21T22:20:51.310Z,4.50
2018-05-21T22:23:18.766Z,5.20
2018-05-21T22:25:46.230Z,3.40
2018-05-21T22:28:13.699Z,3.50
2018-05-21T22:30:41.942Z,3.80
2018-05-21T22:33:09.421Z,3.70
2018-05-21T22:35:36.897Z,4.03
2018-05-21T22:38:04.361Z,4.20
2018-05-21T22:40:31.834Z,4.90
2018-05-21T22:42:59.315Z,4.30
2018-05-21T22:45:26.789Z,4.67
2018-05-21T22:47:54.291Z,4.37
2018-05-21T22:50:21.753Z,4.33
2018-05-21T22:52:49.235Z,3.80
2018-05-21T22:55:16.693Z,4.23
2018-05-21T22:57:44.183Z,3.77
2018-05-21T23:00:12.419Z,3.57
2018-05-21T23:02:39.905Z,4.03
2018-05-21T23:05:07.446Z,3.97
2018-05-21T23:07:34.928Z,5.73
2018-05-21T23:10:03.160Z,4.80
2018-05-21T23:12:30.645Z,3.47
2018-05-21T23:14:58.119Z,4.33
2018-05-21T23:17:26.360Z,3.40
2018-05-21T23:19:53.844Z,4.50
2018-05-21T23:22:22.073Z,4.17
2018-05-21T23:24:49.558Z,4.00
2018-05-21T23:27:17.037Z,4.00
2018-05-21T23:29:45.286Z,4.73
2018-05-21T23:32:12.747Z,4.33
2018-05-21T23:34:40.213Z,4.50
2018-05-21T23:37:09.152Z,4.10
2018-05-21T23:39:36.622Z,3.60
2018-05-21T23:42:04.096Z,4.83
2018-05-21T23:44:31.581Z,4.10
2018-05-21T23:46:59.812Z,4.37
2018-05-21T23:49:27.288Z,4.67
2018-05-21T23:51:54.753Z,4.50
2018-05-21T23:54:22.237Z,4.27
2018-05-21T23:56:49.753Z,4.67
2018-05-21T23:59:17.226Z,3.73
